createdAt,value
2023-05-19T00:01:20.341Z,1.00
2023-05-19T00:03:52.759Z,1.65
2023-05-19T00:06:26.961Z,1.98
2023-05-19T00:08:57.960Z,1.38
2023-05-19T00:11:26.944Z,1.33
2023-05-19T00:13:59.440Z,2.58
2023-05-19T00:16:27.946Z,0.90
2023-05-19T00:18:55.308Z,1.52
2023-05-19T00:21:22.625Z,1.40
2023-05-19T00:23:49.955Z,1.63
2023-05-19T00:26:17.211Z,1.65
2023-05-19T00:28:44.514Z,1.90
2023-05-19T00:31:11.777Z,1.23
2023-05-19T00:33:39.060Z,2.00
2023-05-19T00:36:06.818Z,1.50
2023-05-19T00:38:35.884Z,1.95
2023-05-19T00:41:03.570Z,1.63
2023-05-19T00:43:30.936Z,1.75
2023-05-19T00:46:00.737Z,1.25
2023-05-19T00:48:28.112Z,1.65
2023-05-19T00:51:01.957Z,1.15
2023-05-19T00:53:30.092Z,1.23
2023-05-19T00:58:29.327Z,0.80
2023-05-19T01:01:07.805Z,1.30
2023-05-19T01:03:36.237Z,2.95
2023-05-19T01:06:07.900Z,1.60
2023-05-19T01:08:36.349Z,1.08
2023-05-19T01:11:04.091Z,1.20
2023-05-19T01:13:31.672Z,1.70
2023-05-19T01:15:58.997Z,1.33
2023-05-19T01:18:49.563Z,1.23
2023-05-19T01:21:30.463Z,1.63
2023-05-19T01:24:11.491Z,1.83
2023-05-19T01:26:54.123Z,1.48
2023-05-19T01:29:40.402Z,1.20
2023-05-19T01:32:09.346Z,1.25
2023-05-19T01:34:39.391Z,1.20
2023-05-19T01:37:07.262Z,1.38
2023-05-19T01:39:37.173Z,1.25
2023-05-19T01:42:05.032Z,1.40
2023-05-19T01:44:33.712Z,0.85
2023-05-19T01:47:01.569Z,1.65
2023-05-19T01:49:28.935Z,1.52
2023-05-19T01:51:57.046Z,1.00
2023-05-19T01:57:11.705Z,1.37
2023-05-19T01:59:45.367Z,1.20
2023-05-19T02:02:21.738Z,1.52
2023-05-19T02:04:54.736Z,1.10
2023-05-19T02:07:51.472Z,1.17
2023-05-19T02:10:38.998Z,3.15
2023-05-19T02:13:08.594Z,1.27
2023-05-19T02:15:39.840Z,1.13
2023-05-19T02:18:07.330Z,1.42
2023-05-19T02:20:34.875Z,1.27
2023-05-19T02:23:02.276Z,1.38
2023-05-19T02:25:29.584Z,1.20
2023-05-19T02:27:56.847Z,1.40
2023-05-19T02:30:24.320Z,1.40
2023-05-19T02:32:54.361Z,1.67
2023-05-19T02:35:22.369Z,1.20
2023-05-19T02:37:49.720Z,1.15
2023-05-19T02:40:17.027Z,1.70
2023-05-19T02:42:44.294Z,1.27
2023-05-19T02:45:11.791Z,1.23
2023-05-19T02:47:39.150Z,1.13
2023-05-19T02:50:06.739Z,1.33
2023-05-19T02:52:34.021Z,1.48
2023-05-19T02:55:01.293Z,1.40
2023-05-19T02:57:31.631Z,1.10
2023-05-19T02:59:58.966Z,2.03
2023-05-19T03:02:26.222Z,1.92
2023-05-19T03:04:53.662Z,1.20
2023-05-19T03:07:25.299Z,1.52
2023-05-19T03:09:55.298Z,1.30
2023-05-19T03:12:22.583Z,1.52
2023-05-19T03:14:49.898Z,1.60
2023-05-19T03:17:17.214Z,1.30
2023-05-19T03:19:49.328Z,1.58
2023-05-19T03:22:18.554Z,1.40
2023-05-19T03:24:45.973Z,1.20
2023-05-19T03:27:13.254Z,1.30
2023-05-19T03:29:40.705Z,1.20
2023-05-19T03:32:08.124Z,1.20
2023-05-19T03:34:35.532Z,1.30
2023-05-19T03:37:02.774Z,1.30
2023-05-19T03:39:32.266Z,1.53
2023-05-19T03:41:59.579Z,1.45
2023-05-19T03:44:26.817Z,2.57
2023-05-19T03:46:54.084Z,1.23
2023-05-19T03:49:21.338Z,1.57
2023-05-19T03:51:48.631Z,1.80
2023-05-19T03:54:15.891Z,1.20
2023-05-19T03:56:43.616Z,1.37
2023-05-19T03:59:10.939Z,1.20
2023-05-19T04:01:38.209Z,1.30
2023-05-19T04:04:05.618Z,1.30
2023-05-19T04:06:33.945Z,1.30
2023-05-19T04:09:02.725Z,1.02
2023-05-19T04:11:29.968Z,1.50
2023-05-19T04:13:57.211Z,1.10
2023-05-19T04:16:27.012Z,1.37
2023-05-19T04:18:54.373Z,1.42
2023-05-19T04:21:22.444Z,1.20
2023-05-19T04:23:49.834Z,1.50
2023-05-19T04:26:18.060Z,1.38
2023-05-19T04:28:45.338Z,1.63
2023-05-19T04:31:12.839Z,1.40
2023-05-19T04:33:40.589Z,1.52
2023-05-19T04:36:10.637Z,1.50
2023-05-19T04:38:39.957Z,1.67
2023-05-19T04:41:10.856Z,1.40
2023-05-19T04:43:41.654Z,1.10
2023-05-19T04:46:13.241Z,1.48
2023-05-19T04:48:41.286Z,1.35
2023-05-19T04:51:08.673Z,1.30
2023-05-19T04:53:36.728Z,1.20
2023-05-19T04:58:34.157Z,1.60
2023-05-19T05:01:01.483Z,1.40
2023-05-19T05:03:31.074Z,2.23
2023-05-19T05:06:00.695Z,2.00
2023-05-19T05:08:28.317Z,1.33
2023-05-19T05:10:55.778Z,1.73
2023-05-19T05:13:23.980Z,1.40
2023-05-19T05:18:19.900Z,1.30
2023-05-19T05:20:48.371Z,1.20
2023-05-19T05:23:16.732Z,1.30
2023-05-19T05:25:47.922Z,1.52
2023-05-19T05:28:15.260Z,1.45
2023-05-19T05:30:43.690Z,3.83
2023-05-19T05:33:11.541Z,1.63
2023-05-19T05:35:39.092Z,1.45
2023-05-19T05:38:06.618Z,1.60
2023-05-19T05:40:33.987Z,1.70
2023-05-19T05:43:01.258Z,1.40
2023-05-19T05:45:28.959Z,1.30
2023-05-19T05:47:56.488Z,1.45
2023-05-19T05:50:23.856Z,1.33
2023-05-19T05:52:52.706Z,1.30
2023-05-19T05:55:20.260Z,1.95
2023-05-19T05:57:48.798Z,1.40
2023-05-19T06:00:16.376Z,1.30
2023-05-19T06:02:47.509Z,1.33
2023-05-19T06:05:14.830Z,1.40
2023-05-19T06:07:42.223Z,1.50
2023-05-19T06:10:10.280Z,2.33
2023-05-19T06:12:40.850Z,1.50
2023-05-19T06:15:11.105Z,1.55
2023-05-19T06:17:38.555Z,1.30
2023-05-19T06:20:06.541Z,1.63
2023-05-19T06:22:33.917Z,1.65
2023-05-19T06:25:01.246Z,1.83
2023-05-19T06:27:28.526Z,1.33
2023-05-19T06:29:55.803Z,1.50
2023-05-19T06:32:25.405Z,1.63
2023-05-19T06:34:56.014Z,1.40
2023-05-19T06:37:23.805Z,1.70
2023-05-19T06:39:53.748Z,1.23
2023-05-19T06:42:25.351Z,1.40
2023-05-19T06:44:53.490Z,1.30
2023-05-19T06:47:20.957Z,1.35
2023-05-19T06:49:51.850Z,1.90
2023-05-19T06:52:19.221Z,1.95
2023-05-19T06:54:46.494Z,1.53
2023-05-19T06:57:13.785Z,1.30
2023-05-19T06:59:41.273Z,1.30
2023-05-19T07:02:09.009Z,1.38
2023-05-19T07:04:36.786Z,1.50
2023-05-19T07:07:04.201Z,1.30
2023-05-19T07:09:31.472Z,2.40
2023-05-19T07:11:58.958Z,2.50
2023-05-19T07:14:26.250Z,1.38
2023-05-19T07:16:53.709Z,1.30
2023-05-19T07:19:21.152Z,1.38
2023-05-19T07:21:48.688Z,1.30
2023-05-19T07:24:18.361Z,1.60
2023-05-19T07:26:45.697Z,1.30
2023-05-19T07:29:15.194Z,1.88
2023-05-19T07:31:42.578Z,1.45
2023-05-19T07:34:09.880Z,1.57
2023-05-19T07:36:37.214Z,1.30
2023-05-19T07:39:04.775Z,1.23
2023-05-19T07:41:33.782Z,1.70
2023-05-19T07:44:01.612Z,1.50
2023-05-19T07:46:31.551Z,1.15
2023-05-19T07:48:58.904Z,1.27
2023-05-19T07:51:26.246Z,1.07
2023-05-19T07:53:53.506Z,1.37
2023-05-19T07:56:21.537Z,1.60
2023-05-19T07:58:48.834Z,1.63
2023-05-19T08:01:16.458Z,1.33
2023-05-19T08:03:43.846Z,1.10
2023-05-19T08:06:11.283Z,1.60
2023-05-19T08:08:42.165Z,1.30
2023-05-19T08:11:09.472Z,1.25
2023-05-19T08:13:36.777Z,1.10
2023-05-19T08:16:06.410Z,1.50
2023-05-19T08:18:33.822Z,2.00
2023-05-19T08:21:01.493Z,1.20
2023-05-19T08:23:28.771Z,1.80
2023-05-19T08:25:56.326Z,1.40
2023-05-19T08:28:23.689Z,1.35
2023-05-19T08:30:52.512Z,1.23
2023-05-19T08:33:21.517Z,1.52
2023-05-19T08:35:48.852Z,1.52
2023-05-19T08:38:16.144Z,1.27
2023-05-19T08:40:44.042Z,1.40
2023-05-19T08:43:11.804Z,1.13
2023-05-19T08:45:40.802Z,1.70
2023-05-19T08:48:08.502Z,1.40
2023-05-19T08:50:39.711Z,1.50
2023-05-19T08:53:31.363Z,1.17
2023-05-19T08:56:11.039Z,1.60
2023-05-19T09:03:38.387Z,1.33
2023-05-19T09:06:12.554Z,1.30
2023-05-19T09:08:40.371Z,2.47
2023-05-19T09:11:07.778Z,1.45
2023-05-19T09:13:35.105Z,1.40
2023-05-19T09:16:03.483Z,1.40
2023-05-19T09:18:31.496Z,1.30
2023-05-19T09:21:02.724Z,1.40
2023-05-19T09:23:34.120Z,1.58
2023-05-19T09:26:07.707Z,3.10
2023-05-19T09:28:36.456Z,8.20
2023-05-19T09:31:07.400Z,8.88
2023-05-19T09:33:35.457Z,10.82
2023-05-19T09:36:05.559Z,10.93
2023-05-19T09:38:33.352Z,6.57
2023-05-19T09:41:01.322Z,6.18
2023-05-19T09:43:33.576Z,7.28
2023-05-19T09:46:14.913Z,8.07
2023-05-19T09:48:42.616Z,4.15
2023-05-19T09:51:13.010Z,4.55
2023-05-19T09:53:40.351Z,5.97
2023-05-19T09:56:10.008Z,3.87
2023-05-19T09:58:39.083Z,4.65
2023-05-19T10:01:06.726Z,3.97
2023-05-19T10:03:34.944Z,4.28
2023-05-19T10:06:02.616Z,5.07
2023-05-19T10:08:32.293Z,3.97
2023-05-19T10:11:02.544Z,6.15
2023-05-19T10:13:32.529Z,5.50
2023-05-19T10:16:00.565Z,6.72
2023-05-19T10:18:29.694Z,7.50
2023-05-19T10:20:59.819Z,7.47
2023-05-19T10:23:27.341Z,3.58
2023-05-19T10:25:56.893Z,4.93
2023-05-19T10:28:28.026Z,5.55
2023-05-19T10:30:56.702Z,3.30
2023-05-19T10:33:30.710Z,4.22
2023-05-19T10:36:21.348Z,5.40
2023-05-19T10:38:56.422Z,4.57
2023-05-19T10:41:23.749Z,10.13
2023-05-19T10:44:07.861Z,3.30
2023-05-19T10:46:35.275Z,5.15
2023-05-19T10:49:02.562Z,4.70
2023-05-19T10:51:32.909Z,5.20
2023-05-19T10:54:03.001Z,2.78
2023-05-19T10:56:36.164Z,4.10
2023-05-19T10:59:03.928Z,4.95
2023-05-19T11:01:33.260Z,4.20
2023-05-19T11:04:09.080Z,2.95
2023-05-19T11:06:36.817Z,4.82
2023-05-19T11:09:13.453Z,3.22
2023-05-19T11:12:07.178Z,4.78
2023-05-19T11:14:35.610Z,2.72
2023-05-19T11:17:03.020Z,3.38
2023-05-19T11:19:30.501Z,3.78
2023-05-19T11:21:58.634Z,4.45
2023-05-19T11:26:55.428Z,5.20
2023-05-19T11:29:22.689Z,3.05
2023-05-19T11:31:50.057Z,3.10
2023-05-19T11:34:17.325Z,3.80
2023-05-19T11:36:48.276Z,3.40
2023-05-19T11:39:15.872Z,3.85
2023-05-19T11:41:46.671Z,4.30
2023-05-19T11:44:16.393Z,5.32
2023-05-19T11:46:44.344Z,4.00
2023-05-19T11:49:11.710Z,3.00
2023-05-19T11:51:38.981Z,2.73
2023-05-19T11:54:06.503Z,4.10
2023-05-19T11:56:41.631Z,3.40
2023-05-19T11:59:09.303Z,3.00
2023-05-19T12:01:36.979Z,4.18
2023-05-19T12:04:08.710Z,2.33
2023-05-19T12:06:38.346Z,3.30
2023-05-19T12:09:06.451Z,2.75
2023-05-19T12:11:33.774Z,2.75
2023-05-19T12:14:01.639Z,3.08
2023-05-19T12:16:35.518Z,3.35
2023-05-19T12:19:06.509Z,2.90
2023-05-19T12:21:34.589Z,3.08
2023-05-19T12:24:06.001Z,3.72
2023-05-19T12:26:33.959Z,2.20
2023-05-19T12:29:01.565Z,3.50
2023-05-19T12:31:28.901Z,3.55
2023-05-19T12:33:56.640Z,2.90
2023-05-19T12:36:25.213Z,4.45
2023-05-19T12:38:56.062Z,3.65
2023-05-19T12:41:24.786Z,3.05
2023-05-19T12:43:52.134Z,3.15
2023-05-19T12:46:19.772Z,3.23
2023-05-19T12:48:47.821Z,3.70
2023-05-19T12:51:21.041Z,3.17
2023-05-19T12:53:50.990Z,2.47
2023-05-19T12:56:18.375Z,2.92
2023-05-19T12:58:46.070Z,2.97
2023-05-19T13:01:17.526Z,3.47
2023-05-19T13:03:46.006Z,1.90
2023-05-19T13:06:13.466Z,3.08
2023-05-19T13:08:41.915Z,2.33
2023-05-19T13:11:09.277Z,3.65
2023-05-19T13:13:36.594Z,4.57
2023-05-19T13:16:03.829Z,3.67
2023-05-19T13:18:32.556Z,1.90
2023-05-19T13:21:02.114Z,3.63
2023-05-19T13:23:29.420Z,1.80
2023-05-19T13:25:56.678Z,3.45
2023-05-19T13:28:23.956Z,2.77
2023-05-19T13:30:52.114Z,1.90
2023-05-19T13:33:19.662Z,2.45
2023-05-19T13:35:47.035Z,2.60
2023-05-19T13:38:14.652Z,1.90
2023-05-19T13:40:41.967Z,2.53
2023-05-19T13:43:09.733Z,3.10
2023-05-19T13:45:39.467Z,2.35
2023-05-19T13:48:07.545Z,2.95
2023-05-19T13:50:35.090Z,2.08
2023-05-19T13:53:05.391Z,2.38
2023-05-19T13:55:33.207Z,1.77
2023-05-19T13:58:00.530Z,2.15
2023-05-19T14:00:27.806Z,2.35
2023-05-19T14:02:55.185Z,2.07
2023-05-19T14:05:22.617Z,2.47
2023-05-19T14:07:49.910Z,3.15
2023-05-19T14:10:17.703Z,2.13
2023-05-19T14:13:12.301Z,2.58
2023-05-19T14:15:34.896Z,1.92
2023-05-19T14:18:03.144Z,2.38
2023-05-19T14:20:32.454Z,1.50
2023-05-19T14:22:59.916Z,3.03
2023-05-19T14:25:27.170Z,1.97
2023-05-19T14:27:54.450Z,3.07
2023-05-19T14:30:24.003Z,2.67
2023-05-19T14:32:51.356Z,1.45
2023-05-19T14:35:18.987Z,2.40
2023-05-19T14:37:46.277Z,1.88
2023-05-19T14:40:13.730Z,1.73
2023-05-19T14:42:40.991Z,3.25
2023-05-19T14:45:08.550Z,2.67
2023-05-19T14:47:35.856Z,2.33
2023-05-19T14:50:03.291Z,2.95
2023-05-19T14:52:30.579Z,3.17
2023-05-19T14:54:57.951Z,2.40
2023-05-19T14:57:25.238Z,1.67
2023-05-19T14:59:52.462Z,2.17
2023-05-19T15:02:19.705Z,3.43
2023-05-19T15:04:46.990Z,1.77
2023-05-19T15:07:14.278Z,2.75
2023-05-19T15:09:41.523Z,2.30
2023-05-19T15:12:08.783Z,2.72
2023-05-19T15:14:36.063Z,2.13
2023-05-19T15:17:03.384Z,2.85
2023-05-19T15:19:30.802Z,1.30
2023-05-19T15:21:58.190Z,3.83
2023-05-19T15:24:27.791Z,1.80
2023-05-19T15:26:55.542Z,3.35
2023-05-19T15:29:25.364Z,1.70
2023-05-19T15:31:52.844Z,1.85
2023-05-19T15:34:20.908Z,1.73
2023-05-19T15:39:15.398Z,2.30
2023-05-19T15:41:42.734Z,1.88
2023-05-19T15:44:12.581Z,2.75
2023-05-19T15:46:40.057Z,2.00
2023-05-19T15:49:07.565Z,1.63
2023-05-19T15:51:35.154Z,2.17
2023-05-19T15:54:02.435Z,3.00
2023-05-19T15:56:29.717Z,2.35
2023-05-19T15:58:57.033Z,1.75
2023-05-19T16:01:24.363Z,1.42
2023-05-19T16:03:51.790Z,1.73
2023-05-19T16:06:19.168Z,2.25
2023-05-19T16:08:46.454Z,1.60
2023-05-19T16:11:14.570Z,1.58
2023-05-19T16:13:41.928Z,1.20
2023-05-19T16:16:09.280Z,2.28
2023-05-19T16:18:36.717Z,1.58
2023-05-19T16:21:04.081Z,2.17
2023-05-19T16:23:31.386Z,1.30
2023-05-19T16:25:58.691Z,2.00
2023-05-19T16:28:26.097Z,1.40
2023-05-19T16:30:53.455Z,1.30
2023-05-19T16:33:20.834Z,3.38
2023-05-19T16:35:48.195Z,2.60
2023-05-19T16:38:15.539Z,1.52
2023-05-19T16:40:42.958Z,2.88
2023-05-19T16:43:10.233Z,7.28
2023-05-19T16:45:37.621Z,8.30
2023-05-19T16:48:05.088Z,11.07
2023-05-19T16:50:32.392Z,5.68
2023-05-19T16:55:26.933Z,4.50
2023-05-19T16:57:56.723Z,4.13
2023-05-19T17:00:24.202Z,5.95
2023-05-19T17:02:51.671Z,4.10
2023-05-19T17:05:18.968Z,4.32
2023-05-19T17:07:46.281Z,5.47
2023-05-19T17:10:14.470Z,2.20
2023-05-19T17:12:41.835Z,5.93
2023-05-19T17:15:09.321Z,2.72
2023-05-19T17:17:36.614Z,3.35
2023-05-19T17:20:04.069Z,3.08
2023-05-19T17:22:31.309Z,2.50
2023-05-19T17:24:58.640Z,3.78
2023-05-19T17:27:25.886Z,1.80
2023-05-19T17:29:53.216Z,2.97
2023-05-19T17:32:25.880Z,2.75
2023-05-19T17:34:53.305Z,3.58
2023-05-19T17:37:23.509Z,1.50
2023-05-19T17:39:50.950Z,3.33
2023-05-19T17:42:18.234Z,2.40
2023-05-19T17:44:45.497Z,3.85
2023-05-19T17:47:12.787Z,3.15
2023-05-19T17:49:40.418Z,2.70
2023-05-19T17:52:07.990Z,2.75
2023-05-19T17:54:37.650Z,3.22
2023-05-19T17:57:08.494Z,1.67
2023-05-19T17:59:36.122Z,2.72
2023-05-19T18:02:03.843Z,2.95
2023-05-19T18:04:31.404Z,3.78
2023-05-19T18:06:59.321Z,2.35
2023-05-19T18:09:29.126Z,4.90
2023-05-19T18:11:56.926Z,3.40
2023-05-19T18:14:24.260Z,3.03
2023-05-19T18:16:51.618Z,2.25
2023-05-19T18:19:19.021Z,2.47
2023-05-19T18:21:46.627Z,3.15
2023-05-19T18:24:13.866Z,1.33
2023-05-19T18:26:42.167Z,2.67
2023-05-19T18:29:10.461Z,4.10
2023-05-19T18:31:37.910Z,1.98
2023-05-19T18:34:05.239Z,2.45
2023-05-19T18:36:32.582Z,1.75
2023-05-19T18:39:00.161Z,4.22
2023-05-19T18:41:27.506Z,1.55
2023-05-19T18:43:54.878Z,2.10
2023-05-19T18:46:22.315Z,2.15
2023-05-19T18:48:52.997Z,2.10
2023-05-19T18:51:22.835Z,2.00
2023-05-19T18:53:50.719Z,3.20
2023-05-19T18:58:48.670Z,2.45
2023-05-19T19:01:16.499Z,1.83
2023-05-19T19:03:44.913Z,2.22
2023-05-19T19:06:12.231Z,1.95
2023-05-19T19:08:39.500Z,1.92
2023-05-19T19:11:09.391Z,2.47
2023-05-19T19:13:36.657Z,1.75
2023-05-19T19:16:04.118Z,3.47
2023-05-19T19:18:31.449Z,2.08
2023-05-19T19:21:02.572Z,2.40
2023-05-19T19:23:30.002Z,1.88
2023-05-19T19:25:57.311Z,2.63
2023-05-19T19:28:24.638Z,1.48
2023-05-19T19:30:55.030Z,3.80
2023-05-19T19:33:22.379Z,2.90
2023-05-19T19:35:49.684Z,1.85
2023-05-19T19:38:17.017Z,1.70
2023-05-19T19:40:44.326Z,1.67
2023-05-19T19:43:11.781Z,2.65
2023-05-19T19:45:39.608Z,2.50
2023-05-19T19:48:07.466Z,1.77
2023-05-19T19:50:35.020Z,1.98
2023-05-19T19:53:04.774Z,1.38
2023-05-19T19:55:32.092Z,1.83
2023-05-19T19:57:59.372Z,1.75
2023-05-19T20:00:29.264Z,1.30
2023-05-19T20:03:04.897Z,2.30
2023-05-19T20:05:32.848Z,2.10
2023-05-19T20:08:00.210Z,4.00
2023-05-19T20:10:27.501Z,1.40
2023-05-19T20:12:54.858Z,2.67
2023-05-19T20:15:22.142Z,1.30
2023-05-19T20:17:49.506Z,1.65
2023-05-19T20:20:16.913Z,2.15
2023-05-19T20:22:45.950Z,1.80
2023-05-19T20:25:13.270Z,2.03
2023-05-19T20:27:40.714Z,2.15
2023-05-19T20:30:08.289Z,1.58
2023-05-19T20:32:35.857Z,1.98
2023-05-19T20:35:03.197Z,1.27
2023-05-19T20:37:30.469Z,1.20
2023-05-19T20:39:57.776Z,2.28
2023-05-19T20:42:25.057Z,1.92
2023-05-19T20:44:52.350Z,2.03
2023-05-19T20:47:22.980Z,2.13
2023-05-19T20:49:50.288Z,2.00
2023-05-19T20:52:17.888Z,2.03
2023-05-19T20:54:48.209Z,2.38
2023-05-19T20:57:15.604Z,1.73
2023-05-19T20:59:42.901Z,1.55
2023-05-19T21:02:11.637Z,2.47
2023-05-19T21:04:39.310Z,1.70
2023-05-19T21:07:06.652Z,1.65
2023-05-19T21:09:33.952Z,2.25
2023-05-19T21:12:01.335Z,2.15
2023-05-19T21:14:31.121Z,1.98
2023-05-19T21:16:58.409Z,1.73
2023-05-19T21:19:25.931Z,1.50
2023-05-19T21:21:53.284Z,1.42
2023-05-19T21:24:20.977Z,2.03
2023-05-19T21:26:49.309Z,1.65
2023-05-19T21:29:16.612Z,3.50
2023-05-19T21:31:44.039Z,2.28
2023-05-19T21:34:13.548Z,2.70
2023-05-19T21:36:40.844Z,1.48
2023-05-19T21:39:08.104Z,1.75
2023-05-19T21:41:35.648Z,1.80
2023-05-19T21:44:03.528Z,1.75
2023-05-19T21:46:31.058Z,1.92
2023-05-19T21:48:58.383Z,1.45
2023-05-19T21:51:25.766Z,1.40
2023-05-19T21:53:53.064Z,2.38
2023-05-19T21:56:20.289Z,1.20
2023-05-19T21:58:47.572Z,1.37
2023-05-19T22:01:17.495Z,1.25
2023-05-19T22:03:45.432Z,1.08
2023-05-19T22:06:15.098Z,1.35
2023-05-19T22:08:42.467Z,1.65
2023-05-19T22:11:09.782Z,1.30
2023-05-19T22:13:41.048Z,1.33
2023-05-19T22:16:11.222Z,1.67
2023-05-19T22:18:38.588Z,1.58
2023-05-19T22:21:06.301Z,1.58
2023-05-19T22:23:33.673Z,3.42
2023-05-19T22:26:01.002Z,1.73
2023-05-19T22:28:28.258Z,1.10
2023-05-19T22:30:55.541Z,2.22
2023-05-19T22:33:22.831Z,1.73
2023-05-19T22:35:50.434Z,1.45
2023-05-19T22:38:17.736Z,1.25
2023-05-19T22:40:45.140Z,1.40
2023-05-19T22:43:12.403Z,1.75
2023-05-19T22:45:42.252Z,1.88
2023-05-19T22:48:09.557Z,2.28
2023-05-19T22:50:36.843Z,1.77
2023-05-19T22:53:04.129Z,1.85
2023-05-19T22:55:31.680Z,1.90
2023-05-19T22:57:59.447Z,1.40
2023-05-19T23:00:26.802Z,1.60
2023-05-19T23:02:58.275Z,1.30
2023-05-19T23:05:25.828Z,1.60
2023-05-19T23:07:53.151Z,1.45
2023-05-19T23:10:20.533Z,1.40
2023-05-19T23:12:48.788Z,1.42
2023-05-19T23:15:16.193Z,1.13
2023-05-19T23:17:43.478Z,1.13
2023-05-19T23:20:11.289Z,1.67
2023-05-19T23:22:38.606Z,1.25
2023-05-19T23:25:08.240Z,2.47
2023-05-19T23:27:36.279Z,1.20
2023-05-19T23:32:30.933Z,1.20
2023-05-19T23:34:58.245Z,1.52
2023-05-19T23:37:25.562Z,1.92
2023-05-19T23:39:52.849Z,2.50
2023-05-19T23:42:20.163Z,1.25
2023-05-19T23:44:49.717Z,2.60
2023-05-19T23:47:16.961Z,1.35
2023-05-19T23:49:44.314Z,3.10
2023-05-19T23:52:13.004Z,1.88
2023-05-19T23:54:40.710Z,1.20
2023-05-19T23:57:08.161Z,1.50
2023-05-19T23:59:35.467Z,1.98
